sensor_id;sensor_type;location;lat;lon;timestamp;P1;durP1;ratioP1;P2;durP2;ratioP2
69981;SDS011;57319;56.274;43.980;2022-12-10T00:01:49;3.95;;;3.58;;
69981;SDS011;57319;56.274;43.980;2022-12-10T00:04:15;4.10;;;3.42;;
69981;SDS011;57319;56.274;43.980;2022-12-10T00:06:41;3.35;;;3.00;;
69981;SDS011;57319;56.274;43.980;2022-12-10T00:09:09;3.17;;;2.90;;
69981;SDS011;57319;56.274;43.980;2022-12-10T00:11:37;3.80;;;3.08;;
69981;SDS011;57319;56.274;43.980;2022-12-10T00:14:04;5.03;;;3.17;;
69981;SDS011;57319;56.274;43.980;2022-12-10T00:16:32;2.45;;;2.33;;
69981;SDS011;57319;56.274;43.980;2022-12-10T00:18:59;6.68;;;2.90;;
69981;SDS011;57319;56.274;43.980;2022-12-10T00:21:26;7.53;;;3.35;;
69981;SDS011;57319;56.274;43.980;2022-12-10T00:23:54;4.53;;;3.33;;
69981;SDS011;57319;56.274;43.980;2022-12-10T00:26:22;4.90;;;3.42;;
69981;SDS011;57319;56.274;43.980;2022-12-10T00:28:59;3.72;;;3.38;;
69981;SDS011;57319;56.274;43.980;2022-12-10T00:31:27;5.78;;;3.25;;
69981;SDS011;57319;56.274;43.980;2022-12-10T00:33:55;4.35;;;3.40;;
69981;SDS011;57319;56.274;43.980;2022-12-10T00:36:32;2.85;;;2.65;;
69981;SDS011;57319;56.274;43.980;2022-12-10T00:39:00;4.63;;;3.10;;
69981;SDS011;57319;56.274;43.980;2022-12-10T00:41:26;3.47;;;2.65;;
69981;SDS011;57319;56.274;43.980;2022-12-10T00:43:52;4.05;;;3.35;;
69981;SDS011;57319;56.274;43.980;2022-12-10T00:46:18;3.83;;;3.05;;
69981;SDS011;57319;56.274;43.980;2022-12-10T00:48:44;4.53;;;3.10;;
69981;SDS011;57319;56.274;43.980;2022-12-10T00:51:11;7.60;;;2.92;;
69981;SDS011;57319;56.274;43.980;2022-12-10T00:53:40;2.85;;;2.65;;
69981;SDS011;57319;56.274;43.980;2022-12-10T00:56:07;3.55;;;2.85;;
69981;SDS011;57319;56.274;43.980;2022-12-10T00:58:34;3.28;;;2.60;;
69981;SDS011;57319;56.274;43.980;2022-12-10T01:01:18;3.00;;;2.70;;
69981;SDS011;57319;56.274;43.980;2022-12-10T01:03:50;4.25;;;2.90;;
69981;SDS011;57319;56.274;43.980;2022-12-10T01:08:53;2.65;;;2.53;;
69981;SDS011;57319;56.274;43.980;2022-12-10T01:11:21;2.60;;;2.35;;
69981;SDS011;57319;56.274;43.980;2022-12-10T01:13:51;3.85;;;3.13;;
69981;SDS011;57319;56.274;43.980;2022-12-10T01:16:18;2.70;;;2.50;;
69981;SDS011;57319;56.274;43.980;2022-12-10T01:18:45;2.70;;;2.50;;
69981;SDS011;57319;56.274;43.980;2022-12-10T01:21:13;3.13;;;2.88;;
69981;SDS011;57319;56.274;43.980;2022-12-10T01:23:40;7.20;;;2.67;;
69981;SDS011;57319;56.274;43.980;2022-12-10T01:26:09;2.60;;;2.40;;
69981;SDS011;57319;56.274;43.980;2022-12-10T01:28:37;2.88;;;2.67;;
69981;SDS011;57319;56.274;43.980;2022-12-10T01:31:06;3.35;;;3.05;;
69981;SDS011;57319;56.274;43.980;2022-12-10T01:33:34;2.35;;;2.25;;
69981;SDS011;57319;56.274;43.980;2022-12-10T01:36:10;2.60;;;2.50;;
69981;SDS011;57319;56.274;43.980;2022-12-10T01:38:39;4.30;;;2.45;;
69981;SDS011;57319;56.274;43.980;2022-12-10T01:41:06;2.78;;;2.58;;
69981;SDS011;57319;56.274;43.980;2022-12-10T01:46:19;6.85;;;2.85;;
69981;SDS011;57319;56.274;43.980;2022-12-10T01:48:46;4.43;;;2.97;;
69981;SDS011;57319;56.274;43.980;2022-12-10T01:51:12;3.45;;;2.40;;
69981;SDS011;57319;56.274;43.980;2022-12-10T01:53:39;4.72;;;2.92;;
69981;SDS011;57319;56.274;43.980;2022-12-10T01:56:05;3.28;;;3.00;;
69981;SDS011;57319;56.274;43.980;2022-12-10T01:58:31;4.30;;;2.58;;
69981;SDS011;57319;56.274;43.980;2022-12-10T02:03:51;2.75;;;2.50;;
69981;SDS011;57319;56.274;43.980;2022-12-10T02:06:35;3.22;;;2.80;;
69981;SDS011;57319;56.274;43.980;2022-12-10T02:14:57;5.85;;;2.65;;
69981;SDS011;57319;56.274;43.980;2022-12-10T02:20:21;2.75;;;2.55;;
69981;SDS011;57319;56.274;43.980;2022-12-10T02:23:13;5.93;;;2.65;;
69981;SDS011;57319;56.274;43.980;2022-12-10T02:25:54;6.35;;;2.83;;
69981;SDS011;57319;56.274;43.980;2022-12-10T02:28:34;2.83;;;2.63;;
69981;SDS011;57319;56.274;43.980;2022-12-10T02:31:02;3.58;;;3.28;;
69981;SDS011;57319;56.274;43.980;2022-12-10T02:33:30;3.13;;;2.50;;
69981;SDS011;57319;56.274;43.980;2022-12-10T02:35:58;3.45;;;2.75;;
69981;SDS011;57319;56.274;43.980;2022-12-10T02:38:26;3.60;;;2.55;;
69981;SDS011;57319;56.274;43.980;2022-12-10T02:40:59;3.10;;;2.88;;
69981;SDS011;57319;56.274;43.980;2022-12-10T02:43:29;2.92;;;2.72;;
69981;SDS011;57319;56.274;43.980;2022-12-10T02:45:57;2.60;;;2.50;;
69981;SDS011;57319;56.274;43.980;2022-12-10T02:48:25;4.20;;;2.80;;
69981;SDS011;57319;56.274;43.980;2022-12-10T02:50:52;2.80;;;2.65;;
69981;SDS011;57319;56.274;43.980;2022-12-10T02:53:17;3.13;;;2.83;;
69981;SDS011;57319;56.274;43.980;2022-12-10T02:56:08;4.38;;;2.80;;
69981;SDS011;57319;56.274;43.980;2022-12-10T03:04:00;6.05;;;2.67;;
69981;SDS011;57319;56.274;43.980;2022-12-10T03:06:38;4.22;;;2.88;;
69981;SDS011;57319;56.274;43.980;2022-12-10T03:09:11;6.22;;;2.50;;
69981;SDS011;57319;56.274;43.980;2022-12-10T03:11:42;3.05;;;2.70;;
69981;SDS011;57319;56.274;43.980;2022-12-10T03:14:28;4.50;;;2.88;;
69981;SDS011;57319;56.274;43.980;2022-12-10T03:16:56;2.97;;;2.67;;
69981;SDS011;57319;56.274;43.980;2022-12-10T03:19:30;5.10;;;2.50;;
69981;SDS011;57319;56.274;43.980;2022-12-10T03:22:01;4.78;;;3.10;;
69981;SDS011;57319;56.274;43.980;2022-12-10T03:24:29;3.42;;;2.97;;
69981;SDS011;57319;56.274;43.980;2022-12-10T03:26:57;5.43;;;2.75;;
69981;SDS011;57319;56.274;43.980;2022-12-10T03:29:24;3.15;;;2.95;;
69981;SDS011;57319;56.274;43.980;2022-12-10T03:31:54;7.50;;;2.92;;
69981;SDS011;57319;56.274;43.980;2022-12-10T03:34:20;2.88;;;2.67;;
69981;SDS011;57319;56.274;43.980;2022-12-10T03:36:47;4.72;;;3.08;;
69981;SDS011;57319;56.274;43.980;2022-12-10T03:39:14;2.90;;;2.70;;
69981;SDS011;57319;56.274;43.980;2022-12-10T03:41:41;10.75;;;2.85;;
69981;SDS011;57319;56.274;43.980;2022-12-10T03:44:07;4.95;;;3.08;;
69981;SDS011;57319;56.274;43.980;2022-12-10T03:46:32;3.95;;;3.10;;
69981;SDS011;57319;56.274;43.980;2022-12-10T03:48:59;3.65;;;3.00;;
69981;SDS011;57319;56.274;43.980;2022-12-10T03:51:26;3.03;;;2.83;;
69981;SDS011;57319;56.274;43.980;2022-12-10T03:53:52;9.18;;;3.25;;
69981;SDS011;57319;56.274;43.980;2022-12-10T03:56:18;3.55;;;2.58;;
69981;SDS011;57319;56.274;43.980;2022-12-10T03:58:45;3.70;;;2.90;;
69981;SDS011;57319;56.274;43.980;2022-12-10T04:01:10;2.53;;;2.42;;
69981;SDS011;57319;56.274;43.980;2022-12-10T04:03:37;6.82;;;2.85;;
69981;SDS011;57319;56.274;43.980;2022-12-10T04:06:09;4.15;;;2.97;;
69981;SDS011;57319;56.274;43.980;2022-12-10T04:08:37;12.57;;;4.63;;
69981;SDS011;57319;56.274;43.980;2022-12-10T04:11:04;2.83;;;2.63;;
69981;SDS011;57319;56.274;43.980;2022-12-10T04:13:31;10.80;;;5.65;;
69981;SDS011;57319;56.274;43.980;2022-12-10T04:16:19;2.63;;;2.53;;
69981;SDS011;57319;56.274;43.980;2022-12-10T04:18:55;7.95;;;2.60;;
69981;SDS011;57319;56.274;43.980;2022-12-10T04:21:26;3.47;;;3.17;;
69981;SDS011;57319;56.274;43.980;2022-12-10T04:24:12;2.80;;;2.60;;
69981;SDS011;57319;56.274;43.980;2022-12-10T04:26:56;6.97;;;3.35;;
69981;SDS011;57319;56.274;43.980;2022-12-10T04:29:25;4.82;;;3.13;;
69981;SDS011;57319;56.274;43.980;2022-12-10T04:31:52;2.85;;;2.65;;
69981;SDS011;57319;56.274;43.980;2022-12-10T04:34:19;6.15;;;2.92;;
69981;SDS011;57319;56.274;43.980;2022-12-10T04:36:45;3.90;;;3.10;;
69981;SDS011;57319;56.274;43.980;2022-12-10T04:39:11;4.10;;;2.85;;
69981;SDS011;57319;56.274;43.980;2022-12-10T04:41:41;6.72;;;3.22;;
69981;SDS011;57319;56.274;43.980;2022-12-10T04:44:07;2.88;;;2.67;;
69981;SDS011;57319;56.274;43.980;2022-12-10T04:46:33;4.13;;;2.65;;
69981;SDS011;57319;56.274;43.980;2022-12-10T04:48:59;3.60;;;3.25;;
69981;SDS011;57319;56.274;43.980;2022-12-10T04:51:24;3.67;;;2.70;;
69981;SDS011;57319;56.274;43.980;2022-12-10T04:53:50;3.10;;;2.80;;
69981;SDS011;57319;56.274;43.980;2022-12-10T04:56:16;5.78;;;2.72;;
69981;SDS011;57319;56.274;43.980;2022-12-10T04:58:42;2.95;;;2.70;;
69981;SDS011;57319;56.274;43.980;2022-12-10T05:01:08;2.90;;;2.55;;
69981;SDS011;57319;56.274;43.980;2022-12-10T05:03:36;6.10;;;2.50;;
69981;SDS011;57319;56.274;43.980;2022-12-10T05:06:06;2.80;;;2.60;;
69981;SDS011;57319;56.274;43.980;2022-12-10T05:08:33;3.03;;;2.72;;
69981;SDS011;57319;56.274;43.980;2022-12-10T05:11:01;3.10;;;2.80;;
69981;SDS011;57319;56.274;43.980;2022-12-10T05:13:28;3.42;;;2.47;;
69981;SDS011;57319;56.274;43.980;2022-12-10T05:15:54;2.92;;;2.70;;
69981;SDS011;57319;56.274;43.980;2022-12-10T05:18:19;2.92;;;2.42;;
69981;SDS011;57319;56.274;43.980;2022-12-10T05:20:45;9.10;;;3.08;;
69981;SDS011;57319;56.274;43.980;2022-12-10T05:23:10;6.30;;;2.90;;
69981;SDS011;57319;56.274;43.980;2022-12-10T05:28:41;3.97;;;2.85;;
69981;SDS011;57319;56.274;43.980;2022-12-10T05:31:15;3.55;;;2.95;;
69981;SDS011;57319;56.274;43.980;2022-12-10T05:33:55;3.53;;;2.90;;
69981;SDS011;57319;56.274;43.980;2022-12-10T05:36:22;3.85;;;2.70;;
69981;SDS011;57319;56.274;43.980;2022-12-10T05:38:53;6.22;;;3.30;;
69981;SDS011;57319;56.274;43.980;2022-12-10T05:41:21;3.22;;;2.92;;
69981;SDS011;57319;56.274;43.980;2022-12-10T05:43:49;7.95;;;2.70;;
69981;SDS011;57319;56.274;43.980;2022-12-10T05:46:16;4.88;;;2.90;;
69981;SDS011;57319;56.274;43.980;2022-12-10T05:48:43;2.58;;;2.35;;
69981;SDS011;57319;56.274;43.980;2022-12-10T05:51:13;2.97;;;2.70;;
69981;SDS011;57319;56.274;43.980;2022-12-10T05:53:41;6.50;;;3.53;;
69981;SDS011;57319;56.274;43.980;2022-12-10T05:56:08;3.05;;;2.78;;
69981;SDS011;57319;56.274;43.980;2022-12-10T05:58:36;4.80;;;3.33;;
69981;SDS011;57319;56.274;43.980;2022-12-10T06:01:06;4.63;;;3.42;;
69981;SDS011;57319;56.274;43.980;2022-12-10T06:03:34;4.32;;;3.03;;
69981;SDS011;57319;56.274;43.980;2022-12-10T06:05:59;4.53;;;3.17;;
69981;SDS011;57319;56.274;43.980;2022-12-10T06:08:25;2.40;;;2.30;;
69981;SDS011;57319;56.274;43.980;2022-12-10T06:10:51;9.75;;;2.78;;
69981;SDS011;57319;56.274;43.980;2022-12-10T06:13:16;6.82;;;2.95;;
69981;SDS011;57319;56.274;43.980;2022-12-10T06:15:43;3.15;;;2.90;;
69981;SDS011;57319;56.274;43.980;2022-12-10T06:18:09;4.35;;;2.88;;
69981;SDS011;57319;56.274;43.980;2022-12-10T06:20:36;8.68;;;3.03;;
69981;SDS011;57319;56.274;43.980;2022-12-10T06:23:03;5.20;;;3.10;;
69981;SDS011;57319;56.274;43.980;2022-12-10T06:25:28;8.48;;;3.03;;
69981;SDS011;57319;56.274;43.980;2022-12-10T06:27:54;5.13;;;3.00;;
69981;SDS011;57319;56.274;43.980;2022-12-10T06:30:20;3.97;;;2.80;;
69981;SDS011;57319;56.274;43.980;2022-12-10T06:32:45;6.47;;;2.88;;
69981;SDS011;57319;56.274;43.980;2022-12-10T06:35:11;4.43;;;3.42;;
69981;SDS011;57319;56.274;43.980;2022-12-10T06:37:37;4.57;;;2.75;;
69981;SDS011;57319;56.274;43.980;2022-12-10T06:40:03;3.17;;;2.92;;
69981;SDS011;57319;56.274;43.980;2022-12-10T06:42:29;9.77;;;3.13;;
69981;SDS011;57319;56.274;43.980;2022-12-10T06:44:55;13.00;;;3.83;;
69981;SDS011;57319;56.274;43.980;2022-12-10T06:47:21;4.05;;;2.50;;
69981;SDS011;57319;56.274;43.980;2022-12-10T06:49:46;4.97;;;2.83;;
69981;SDS011;57319;56.274;43.980;2022-12-10T06:52:12;4.78;;;3.05;;
69981;SDS011;57319;56.274;43.980;2022-12-10T06:54:39;5.35;;;3.10;;
69981;SDS011;57319;56.274;43.980;2022-12-10T06:57:04;3.05;;;2.70;;
69981;SDS011;57319;56.274;43.980;2022-12-10T06:59:30;7.03;;;2.85;;
69981;SDS011;57319;56.274;43.980;2022-12-10T07:01:56;5.05;;;2.85;;
69981;SDS011;57319;56.274;43.980;2022-12-10T07:04:21;3.50;;;3.08;;
69981;SDS011;57319;56.274;43.980;2022-12-10T07:06:47;2.92;;;2.63;;
69981;SDS011;57319;56.274;43.980;2022-12-10T07:09:13;7.55;;;3.55;;
69981;SDS011;57319;56.274;43.980;2022-12-10T07:11:38;3.13;;;2.92;;
69981;SDS011;57319;56.274;43.980;2022-12-10T07:14:04;3.83;;;3.10;;
69981;SDS011;57319;56.274;43.980;2022-12-10T07:16:31;4.07;;;3.13;;
69981;SDS011;57319;56.274;43.980;2022-12-10T07:18:58;3.72;;;3.35;;
69981;SDS011;57319;56.274;43.980;2022-12-10T07:21:27;7.35;;;3.53;;
69981;SDS011;57319;56.274;43.980;2022-12-10T07:23:55;5.40;;;3.03;;
69981;SDS011;57319;56.274;43.980;2022-12-10T07:26:23;10.18;;;4.20;;
69981;SDS011;57319;56.274;43.980;2022-12-10T07:28:50;4.88;;;3.17;;
69981;SDS011;57319;56.274;43.980;2022-12-10T07:31:16;5.70;;;3.22;;
69981;SDS011;57319;56.274;43.980;2022-12-10T07:33:42;5.75;;;3.20;;
69981;SDS011;57319;56.274;43.980;2022-12-10T07:36:08;3.80;;;3.10;;
69981;SDS011;57319;56.274;43.980;2022-12-10T07:38:36;6.93;;;3.35;;
69981;SDS011;57319;56.274;43.980;2022-12-10T07:41:04;3.00;;;2.83;;
69981;SDS011;57319;56.274;43.980;2022-12-10T07:43:38;4.03;;;3.28;;
69981;SDS011;57319;56.274;43.980;2022-12-10T07:46:06;3.22;;;2.92;;
69981;SDS011;57319;56.274;43.980;2022-12-10T07:48:35;7.53;;;3.38;;
69981;SDS011;57319;56.274;43.980;2022-12-10T07:51:02;6.50;;;3.53;;
69981;SDS011;57319;56.274;43.980;2022-12-10T07:53:28;7.55;;;3.97;;
69981;SDS011;57319;56.274;43.980;2022-12-10T07:55:54;6.25;;;3.85;;
69981;SDS011;57319;56.274;43.980;2022-12-10T07:58:19;3.92;;;3.47;;
69981;SDS011;57319;56.274;43.980;2022-12-10T08:00:45;5.90;;;3.83;;
69981;SDS011;57319;56.274;43.980;2022-12-10T08:03:11;6.45;;;3.38;;
69981;SDS011;57319;56.274;43.980;2022-12-10T08:05:37;6.80;;;4.07;;
69981;SDS011;57319;56.274;43.980;2022-12-10T08:08:02;8.30;;;3.80;;
69981;SDS011;57319;56.274;43.980;2022-12-10T08:10:28;6.85;;;3.85;;
69981;SDS011;57319;56.274;43.980;2022-12-10T08:12:54;7.00;;;4.15;;
69981;SDS011;57319;56.274;43.980;2022-12-10T08:15:20;10.90;;;3.88;;
69981;SDS011;57319;56.274;43.980;2022-12-10T08:17:45;8.52;;;3.95;;
69981;SDS011;57319;56.274;43.980;2022-12-10T08:20:11;8.65;;;3.60;;
69981;SDS011;57319;56.274;43.980;2022-12-10T08:22:37;5.80;;;4.05;;
69981;SDS011;57319;56.274;43.980;2022-12-10T08:25:03;6.43;;;3.88;;
69981;SDS011;57319;56.274;43.980;2022-12-10T08:27:29;13.55;;;3.92;;
69981;SDS011;57319;56.274;43.980;2022-12-10T08:29:54;5.47;;;3.97;;
69981;SDS011;57319;56.274;43.980;2022-12-10T08:32:20;4.13;;;3.83;;
69981;SDS011;57319;56.274;43.980;2022-12-10T08:34:46;10.77;;;4.30;;
69981;SDS011;57319;56.274;43.980;2022-12-10T08:37:11;8.75;;;3.92;;
69981;SDS011;57319;56.274;43.980;2022-12-10T08:39:37;10.30;;;4.00;;
69981;SDS011;57319;56.274;43.980;2022-12-10T08:42:02;10.23;;;3.97;;
69981;SDS011;57319;56.274;43.980;2022-12-10T08:44:28;5.00;;;3.83;;
69981;SDS011;57319;56.274;43.980;2022-12-10T08:46:54;7.15;;;3.63;;
69981;SDS011;57319;56.274;43.980;2022-12-10T08:49:19;7.47;;;4.00;;
69981;SDS011;57319;56.274;43.980;2022-12-10T08:51:45;5.93;;;4.30;;
69981;SDS011;57319;56.274;43.980;2022-12-10T08:54:11;10.85;;;3.83;;
69981;SDS011;57319;56.274;43.980;2022-12-10T08:56:37;5.22;;;4.35;;
69981;SDS011;57319;56.274;43.980;2022-12-10T08:59:04;8.35;;;4.32;;
69981;SDS011;57319;56.274;43.980;2022-12-10T09:01:30;7.40;;;3.95;;
69981;SDS011;57319;56.274;43.980;2022-12-10T09:03:56;10.43;;;4.45;;
69981;SDS011;57319;56.274;43.980;2022-12-10T09:06:22;13.45;;;5.07;;
69981;SDS011;57319;56.274;43.980;2022-12-10T09:08:49;4.47;;;3.78;;
69981;SDS011;57319;56.274;43.980;2022-12-10T09:11:17;5.28;;;4.75;;
69981;SDS011;57319;56.274;43.980;2022-12-10T09:13:47;6.90;;;4.18;;
69981;SDS011;57319;56.274;43.980;2022-12-10T09:16:13;4.13;;;3.20;;
69981;SDS011;57319;56.274;43.980;2022-12-10T09:18:39;7.63;;;4.15;;
69981;SDS011;57319;56.274;43.980;2022-12-10T09:21:06;5.28;;;3.63;;
69981;SDS011;57319;56.274;43.980;2022-12-10T09:23:32;6.22;;;4.28;;
69981;SDS011;57319;56.274;43.980;2022-12-10T09:25:58;7.20;;;4.05;;
69981;SDS011;57319;56.274;43.980;2022-12-10T09:28:23;11.65;;;4.00;;
69981;SDS011;57319;56.274;43.980;2022-12-10T09:30:56;8.00;;;4.50;;
69981;SDS011;57319;56.274;43.980;2022-12-10T09:33:22;7.00;;;4.35;;
69981;SDS011;57319;56.274;43.980;2022-12-10T09:35:48;7.82;;;5.00;;
69981;SDS011;57319;56.274;43.980;2022-12-10T09:38:13;7.82;;;4.93;;
69981;SDS011;57319;56.274;43.980;2022-12-10T09:40:40;14.45;;;5.03;;
69981;SDS011;57319;56.274;43.980;2022-12-10T09:51:34;12.50;;;5.88;;
69981;SDS011;57319;56.274;43.980;2022-12-10T09:54:02;9.30;;;5.97;;
69981;SDS011;57319;56.274;43.980;2022-12-10T09:56:37;19.08;;;7.80;;
69981;SDS011;57319;56.274;43.980;2022-12-10T09:59:17;18.33;;;8.13;;
69981;SDS011;57319;56.274;43.980;2022-12-10T10:01:47;12.10;;;5.75;;
69981;SDS011;57319;56.274;43.980;2022-12-10T10:04:19;13.77;;;6.80;;
69981;SDS011;57319;56.274;43.980;2022-12-10T10:06:45;9.52;;;6.38;;
69981;SDS011;57319;56.274;43.980;2022-12-10T10:09:11;8.30;;;4.70;;
69981;SDS011;57319;56.274;43.980;2022-12-10T10:11:40;7.10;;;5.15;;
69981;SDS011;57319;56.274;43.980;2022-12-10T10:14:39;9.75;;;4.95;;
69981;SDS011;57319;56.274;43.980;2022-12-10T10:17:02;18.65;;;7.63;;
69981;SDS011;57319;56.274;43.980;2022-12-10T10:22:00;10.93;;;5.05;;
69981;SDS011;57319;56.274;43.980;2022-12-10T10:24:40;11.40;;;6.13;;
69981;SDS011;57319;56.274;43.980;2022-12-10T10:27:17;9.80;;;5.93;;
69981;SDS011;57319;56.274;43.980;2022-12-10T10:29:49;12.30;;;7.18;;
69981;SDS011;57319;56.274;43.980;2022-12-10T10:32:17;13.10;;;8.23;;
69981;SDS011;57319;56.274;43.980;2022-12-10T10:34:47;14.27;;;8.40;;
69981;SDS011;57319;56.274;43.980;2022-12-10T10:37:26;19.40;;;8.48;;
69981;SDS011;57319;56.274;43.980;2022-12-10T10:40:32;23.92;;;8.75;;
69981;SDS011;57319;56.274;43.980;2022-12-10T10:43:08;22.20;;;9.38;;
69981;SDS011;57319;56.274;43.980;2022-12-10T10:45:41;28.85;;;11.35;;
69981;SDS011;57319;56.274;43.980;2022-12-10T10:48:22;27.05;;;12.07;;
69981;SDS011;57319;56.274;43.980;2022-12-10T10:50:51;46.80;;;14.77;;
69981;SDS011;57319;56.274;43.980;2022-12-10T10:53:25;44.45;;;15.68;;
69981;SDS011;57319;56.274;43.980;2022-12-10T10:55:54;43.05;;;14.82;;
69981;SDS011;57319;56.274;43.980;2022-12-10T10:58:23;32.30;;;12.40;;
69981;SDS011;57319;56.274;43.980;2022-12-10T11:00:57;44.15;;;12.50;;
69981;SDS011;57319;56.274;43.980;2022-12-10T11:03:25;50.30;;;15.73;;
69981;SDS011;57319;56.274;43.980;2022-12-10T11:05:53;43.10;;;14.38;;
69981;SDS011;57319;56.274;43.980;2022-12-10T11:08:21;46.60;;;14.80;;
69981;SDS011;57319;56.274;43.980;2022-12-10T11:10:50;61.65;;;21.05;;
69981;SDS011;57319;56.274;43.980;2022-12-10T11:13:23;49.28;;;14.60;;
69981;SDS011;57319;56.274;43.980;2022-12-10T11:16:33;49.75;;;16.90;;
69981;SDS011;57319;56.274;43.980;2022-12-10T11:18:41;60.33;;;18.67;;
69981;SDS011;57319;56.274;43.980;2022-12-10T11:21:21;44.22;;;15.52;;
69981;SDS011;57319;56.274;43.980;2022-12-10T11:23:48;15.63;;;7.60;;
69981;SDS011;57319;56.274;43.980;2022-12-10T11:26:21;42.03;;;15.20;;
69981;SDS011;57319;56.274;43.980;2022-12-10T11:34:35;11.50;;;6.07;;
69981;SDS011;57319;56.274;43.980;2022-12-10T11:42:39;14.55;;;8.07;;
69981;SDS011;57319;56.274;43.980;2022-12-10T11:45:26;18.60;;;9.05;;
69981;SDS011;57319;56.274;43.980;2022-12-10T11:50:48;21.90;;;9.82;;
69981;SDS011;57319;56.274;43.980;2022-12-10T11:59:12;22.25;;;11.23;;
69981;SDS011;57319;56.274;43.980;2022-12-10T12:01:59;18.88;;;9.30;;
69981;SDS011;57319;56.274;43.980;2022-12-10T12:15:52;15.48;;;8.27;;
69981;SDS011;57319;56.274;43.980;2022-12-10T12:18:42;11.57;;;8.10;;
69981;SDS011;57319;56.274;43.980;2022-12-10T12:21:18;14.13;;;8.15;;
69981;SDS011;57319;56.274;43.980;2022-12-10T12:23:46;13.13;;;7.90;;
69981;SDS011;57319;56.274;43.980;2022-12-10T12:26:29;13.95;;;8.13;;
69981;SDS011;57319;56.274;43.980;2022-12-10T12:31:31;19.13;;;8.65;;
69981;SDS011;57319;56.274;43.980;2022-12-10T12:36:36;10.57;;;7.35;;
69981;SDS011;57319;56.274;43.980;2022-12-10T12:44:18;11.52;;;7.03;;
69981;SDS011;57319;56.274;43.980;2022-12-10T12:46:55;19.67;;;7.18;;
69981;SDS011;57319;56.274;43.980;2022-12-10T12:49:39;10.70;;;7.38;;
69981;SDS011;57319;56.274;43.980;2022-12-10T12:54:45;15.38;;;7.30;;
69981;SDS011;57319;56.274;43.980;2022-12-10T13:00:10;15.05;;;7.35;;
69981;SDS011;57319;56.274;43.980;2022-12-10T13:03:00;13.93;;;7.72;;
69981;SDS011;57319;56.274;43.980;2022-12-10T13:10:50;10.88;;;7.07;;
69981;SDS011;57319;56.274;43.980;2022-12-10T13:13:40;15.00;;;7.47;;
69981;SDS011;57319;56.274;43.980;2022-12-10T13:19:23;14.15;;;7.32;;
69981;SDS011;57319;56.274;43.980;2022-12-10T13:32:21;12.27;;;7.35;;
69981;SDS011;57319;56.274;43.980;2022-12-10T13:37:33;12.60;;;7.80;;
69981;SDS011;57319;56.274;43.980;2022-12-10T13:40:18;9.27;;;6.47;;
69981;SDS011;57319;56.274;43.980;2022-12-10T13:49:05;12.63;;;6.20;;
69981;SDS011;57319;56.274;43.980;2022-12-10T13:51:50;8.60;;;6.00;;
69981;SDS011;57319;56.274;43.980;2022-12-10T14:01:02;11.32;;;6.53;;
69981;SDS011;57319;56.274;43.980;2022-12-10T14:03:03;9.88;;;6.53;;
69981;SDS011;57319;56.274;43.980;2022-12-10T14:08:29;7.88;;;5.90;;
69981;SDS011;57319;56.274;43.980;2022-12-10T14:10:59;13.90;;;7.88;;
69981;SDS011;57319;56.274;43.980;2022-12-10T14:13:29;11.25;;;7.40;;
69981;SDS011;57319;56.274;43.980;2022-12-10T14:16:02;13.65;;;7.00;;
69981;SDS011;57319;56.274;43.980;2022-12-10T14:18:31;12.82;;;7.05;;
69981;SDS011;57319;56.274;43.980;2022-12-10T14:20:57;13.30;;;7.25;;
69981;SDS011;57319;56.274;43.980;2022-12-10T14:23:30;11.60;;;7.53;;
69981;SDS011;57319;56.274;43.980;2022-12-10T14:26:11;14.02;;;7.72;;
69981;SDS011;57319;56.274;43.980;2022-12-10T14:28:43;10.18;;;7.25;;
69981;SDS011;57319;56.274;43.980;2022-12-10T14:31:30;11.35;;;7.55;;
69981;SDS011;57319;56.274;43.980;2022-12-10T14:34:00;12.85;;;7.93;;
69981;SDS011;57319;56.274;43.980;2022-12-10T14:36:39;10.60;;;7.68;;
69981;SDS011;57319;56.274;43.980;2022-12-10T14:39:19;11.32;;;7.43;;
69981;SDS011;57319;56.274;43.980;2022-12-10T14:41:47;15.57;;;7.90;;
69981;SDS011;57319;56.274;43.980;2022-12-10T14:44:16;11.23;;;7.75;;
69981;SDS011;57319;56.274;43.980;2022-12-10T14:46:43;17.30;;;8.90;;
69981;SDS011;57319;56.274;43.980;2022-12-10T14:49:13;15.95;;;8.38;;
69981;SDS011;57319;56.274;43.980;2022-12-10T14:51:41;13.13;;;8.90;;
69981;SDS011;57319;56.274;43.980;2022-12-10T14:54:29;15.77;;;9.50;;
69981;SDS011;57319;56.274;43.980;2022-12-10T14:56:59;24.65;;;13.20;;
69981;SDS011;57319;56.274;43.980;2022-12-10T14:59:31;19.80;;;11.25;;
69981;SDS011;57319;56.274;43.980;2022-12-10T15:02:10;25.52;;;11.07;;
69981;SDS011;57319;56.274;43.980;2022-12-10T15:04:45;19.85;;;10.02;;
69981;SDS011;57319;56.274;43.980;2022-12-10T15:07:14;15.07;;;9.77;;
69981;SDS011;57319;56.274;43.980;2022-12-10T15:09:43;22.67;;;11.57;;
69981;SDS011;57319;56.274;43.980;2022-12-10T15:15:31;35.60;;;18.23;;
69981;SDS011;57319;56.274;43.980;2022-12-10T15:20:31;22.02;;;10.48;;
69981;SDS011;57319;56.274;43.980;2022-12-10T15:23:07;18.75;;;10.45;;
69981;SDS011;57319;56.274;43.980;2022-12-10T15:25:46;17.67;;;10.10;;
69981;SDS011;57319;56.274;43.980;2022-12-10T15:28:24;15.25;;;10.15;;
69981;SDS011;57319;56.274;43.980;2022-12-10T15:30:58;16.40;;;9.68;;
69981;SDS011;57319;56.274;43.980;2022-12-10T15:33:38;24.45;;;11.25;;
69981;SDS011;57319;56.274;43.980;2022-12-10T15:36:04;18.13;;;10.02;;
69981;SDS011;57319;56.274;43.980;2022-12-10T15:38:30;18.40;;;10.18;;
69981;SDS011;57319;56.274;43.980;2022-12-10T15:41:20;16.75;;;10.63;;
69981;SDS011;57319;56.274;43.980;2022-12-10T15:43:51;24.85;;;11.30;;
69981;SDS011;57319;56.274;43.980;2022-12-10T15:46:46;21.13;;;11.43;;
69981;SDS011;57319;56.274;43.980;2022-12-10T15:49:12;28.55;;;13.38;;
69981;SDS011;57319;56.274;43.980;2022-12-10T15:51:39;31.58;;;15.02;;
69981;SDS011;57319;56.274;43.980;2022-12-10T15:57:26;46.13;;;23.98;;
69981;SDS011;57319;56.274;43.980;2022-12-10T15:59:53;36.45;;;20.00;;
69981;SDS011;57319;56.274;43.980;2022-12-10T16:02:26;23.90;;;12.55;;
69981;SDS011;57319;56.274;43.980;2022-12-10T16:07:35;20.23;;;11.32;;
69981;SDS011;57319;56.274;43.980;2022-12-10T16:10:01;20.60;;;12.40;;
69981;SDS011;57319;56.274;43.980;2022-12-10T16:12:28;64.45;;;32.60;;
69981;SDS011;57319;56.274;43.980;2022-12-10T16:14:55;93.40;;;47.15;;
69981;SDS011;57319;56.274;43.980;2022-12-10T16:17:28;57.50;;;27.02;;
69981;SDS011;57319;56.274;43.980;2022-12-10T16:20:10;30.85;;;15.13;;
69981;SDS011;57319;56.274;43.980;2022-12-10T16:22:41;25.63;;;13.27;;
69981;SDS011;57319;56.274;43.980;2022-12-10T16:25:07;24.17;;;11.98;;
69981;SDS011;57319;56.274;43.980;2022-12-10T16:27:33;30.85;;;16.52;;
69981;SDS011;57319;56.274;43.980;2022-12-10T16:30:05;15.77;;;10.23;;
69981;SDS011;57319;56.274;43.980;2022-12-10T16:32:45;26.10;;;15.32;;
69981;SDS011;57319;56.274;43.980;2022-12-10T16:35:12;24.58;;;13.52;;
69981;SDS011;57319;56.274;43.980;2022-12-10T16:37:46;14.93;;;9.70;;
69981;SDS011;57319;56.274;43.980;2022-12-10T16:40:15;14.63;;;9.65;;
69981;SDS011;57319;56.274;43.980;2022-12-10T16:42:42;14.35;;;9.93;;
69981;SDS011;57319;56.274;43.980;2022-12-10T16:45:11;13.73;;;9.13;;
69981;SDS011;57319;56.274;43.980;2022-12-10T16:47:43;9.90;;;8.18;;
69981;SDS011;57319;56.274;43.980;2022-12-10T16:50:09;14.77;;;8.63;;
69981;SDS011;57319;56.274;43.980;2022-12-10T16:52:37;11.18;;;8.32;;
69981;SDS011;57319;56.274;43.980;2022-12-10T16:55:03;12.13;;;8.35;;
69981;SDS011;57319;56.274;43.980;2022-12-10T16:57:29;9.68;;;7.43;;